Aviation Digital Data Service (ADDS)

Output produced by TAFs form (0748 UTC 04 September 2015)
found at http://www.aviationweather.gov/adds/tafs/
 
KDEN 040653Z 23008KT 10SM FEW130 16/12 A2999 RMK AO2 SLP078 T01560117 403060144
KDEN 040533Z 0406/0512 21008KT P6SM FEW140 
     FM041400 VRB05KT P6SM SCT090 BKN140 
     FM042100 15008KT P6SM VCSH SCT080 BKN120 
     FM050200 33008KT P6SM SCT100 BKN150 
     FM050600 23008KT P6SM FEW120 SCT180